Time;durP1;ratioP1;P1;durP2;ratioP2;P2;SDS_P1;SDS_P2;PMS_P1;PMS_P2;Temp;Humidity;BMP_temperature;BMP_pressure;BME280_temperature;BME280_humidity;BME280_pressure;Samples;Min_cycle;Max_cycle;Signal;HPM_P1;HPM_P2
2021/10/26 00:00:09;;;;;;;5.35;4.85;;;8.00;99.90;;;;;;5030258;28;20202;-71
2021/10/26 00:02:38;;;;;;;6.95;5.25;;;7.90;99.90;;;;;;5030258;28;20205;-71
2021/10/26 00:05:07;;;;;;;5.50;4.90;;;7.90;99.90;;;;;;5030087;28;20621;-70
2021/10/26 00:07:34;;;;;;;5.70;4.90;;;7.80;99.90;;;;;;5029553;28;20202;-70
2021/10/26 00:10:01;;;;;;;10.38;5.05;;;7.80;99.90;;;;;;5030224;28;20209;-70
2021/10/26 00:12:28;;;;;;;5.55;4.75;;;7.80;99.90;;;;;;5029957;28;20206;-70
2021/10/26 00:14:55;;;;;;;8.57;5.68;;;7.80;99.90;;;;;;5030079;28;20677;-70
2021/10/26 00:17:22;;;;;;;5.30;4.80;;;7.80;99.90;;;;;;5029368;28;20261;-70
2021/10/26 00:19:50;;;;;;;6.50;5.78;;;7.80;99.90;;;;;;5030116;28;20209;-71
2021/10/26 00:22:17;;;;;;;6.65;4.88;;;7.70;99.90;;;;;;5032599;28;20225;-70
2021/10/26 00:24:44;;;;;;;5.40;4.78;;;7.70;99.90;;;;;;5033364;28;20257;-70
2021/10/26 00:27:11;;;;;;;7.03;5.22;;;7.60;99.90;;;;;;5033219;28;20206;-70
2021/10/26 00:29:37;;;;;;;5.75;4.90;;;7.60;99.90;;;;;;5033546;28;20205;-71
2021/10/26 00:32:05;;;;;;;5.45;4.95;;;7.60;99.90;;;;;;5041595;28;20189;-70
2021/10/26 00:34:32;;;;;;;5.50;4.90;;;7.60;99.90;;;;;;5053279;28;20201;-71
2021/10/26 00:37:00;;;;;;;7.68;5.38;;;7.50;99.90;;;;;;5052864;28;20221;-70
2021/10/26 00:39:27;;;;;;;8.07;5.50;;;7.60;99.90;;;;;;5053150;28;20232;-70
2021/10/26 00:41:56;;;;;;;5.82;5.22;;;7.50;99.90;;;;;;5053280;28;20204;-70
2021/10/26 00:44:23;;;;;;;5.40;4.90;;;7.60;99.90;;;;;;5052760;28;20221;-70
2021/10/26 00:46:50;;;;;;;5.07;4.57;;;7.50;99.90;;;;;;5052797;28;20236;-70
2021/10/26 00:49:16;;;;;;;8.95;5.40;;;7.50;99.90;;;;;;5052963;28;20671;-70
2021/10/26 00:51:43;;;;;;;6.13;4.43;;;7.60;99.90;;;;;;5052920;28;20204;-70
2021/10/26 00:54:11;;;;;;;8.57;5.68;;;7.60;99.90;;;;;;5052846;28;20193;-71
2021/10/26 00:56:38;;;;;;;5.53;5.00;;;7.50;99.90;;;;;;5052390;28;20229;-71
2021/10/26 00:59:05;;;;;;;6.78;5.40;;;7.60;99.90;;;;;;5053350;28;20312;-71
2021/10/26 01:01:32;;;;;;;5.03;4.45;;;7.60;99.90;;;;;;5052663;28;20205;-71
2021/10/26 01:03:58;;;;;;;5.95;5.10;;;7.60;99.90;;;;;;5052770;28;20565;-71
2021/10/26 01:06:25;;;;;;;7.82;5.65;;;7.70;99.90;;;;;;5051909;28;20232;-71
2021/10/26 01:08:52;;;;;;;5.22;4.72;;;7.70;99.90;;;;;;5052875;28;20223;-71
2021/10/26 01:11:21;;;;;;;5.97;5.38;;;7.70;99.90;;;;;;5052576;28;20204;-71
2021/10/26 01:13:48;;;;;;;5.78;5.20;;;7.70;99.90;;;;;;5052668;28;20205;-71
2021/10/26 01:16:16;;;;;;;5.20;4.70;;;7.70;99.90;;;;;;5051886;28;20605;-71
2021/10/26 01:18:43;;;;;;;6.82;5.60;;;7.70;99.90;;;;;;5052658;28;20212;-71
2021/10/26 01:21:11;;;;;;;6.03;5.43;;;7.80;99.90;;;;;;5052522;28;20205;-71
2021/10/26 01:23:37;;;;;;;8.18;5.10;;;7.80;99.90;;;;;;5052321;28;20213;-71
2021/10/26 01:26:04;;;;;;;5.40;4.90;;;7.80;99.90;;;;;;5051728;28;20725;-71
2021/10/26 01:28:31;;;;;;;5.13;4.45;;;7.80;99.90;;;;;;5052238;28;20902;-71
2021/10/26 01:30:58;;;;;;;5.65;5.05;;;7.80;99.90;;;;;;5052210;28;20573;-71
2021/10/26 01:33:25;;;;;;;6.13;5.00;;;7.80;99.90;;;;;;5051861;28;20205;-71
2021/10/26 01:35:52;;;;;;;6.03;5.13;;;7.90;99.90;;;;;;5051731;28;20213;-71
2021/10/26 01:38:23;;;;;;;5.93;5.35;;;7.90;99.90;;;;;;5052091;28;20201;-71
2021/10/26 01:40:50;;;;;;;5.85;5.25;;;7.90;99.90;;;;;;5052217;28;20209;-71
2021/10/26 01:43:17;;;;;;;9.05;5.95;;;7.90;99.90;;;;;;5051771;28;20197;-71
2021/10/26 01:45:44;;;;;;;6.45;5.35;;;7.90;99.90;;;;;;5051526;28;20237;-71
2021/10/26 01:48:11;;;;;;;6.35;5.22;;;7.90;99.90;;;;;;5051760;28;20208;-71
2021/10/26 01:50:38;;;;;;;5.40;4.30;;;8.00;99.90;;;;;;5051752;28;20607;-71
2021/10/26 01:53:06;;;;;;;5.97;5.00;;;8.00;99.90;;;;;;5051875;28;20216;-70
2021/10/26 01:55:38;;;;;;;6.28;5.20;;;8.10;99.90;;;;;;5051543;28;20244;-70
2021/10/26 01:58:05;;;;;;;6.13;5.53;;;8.10;99.90;;;;;;5051698;28;20209;-70
2021/10/26 02:00:33;;;;;;;7.40;5.32;;;8.10;99.90;;;;;;5051666;28;20205;-71
2021/10/26 02:02:59;;;;;;;5.88;5.25;;;8.10;99.90;;;;;;5051849;28;20197;-71
2021/10/26 02:05:26;;;;;;;6.55;5.65;;;8.10;99.90;;;;;;5051148;28;20228;-70
2021/10/26 02:07:53;;;;;;;6.60;5.90;;;8.20;99.90;;;;;;5051408;28;20228;-70
2021/10/26 02:10:21;;;;;;;7.05;6.35;;;8.20;99.90;;;;;;5051373;28;20201;-70
2021/10/26 02:12:49;;;;;;;6.53;5.82;;;8.30;99.90;;;;;;5051657;28;20218;-70
2021/10/26 02:15:17;;;;;;;6.45;5.80;;;8.30;99.90;;;;;;5051237;28;20228;-71
2021/10/26 02:17:43;;;;;;;6.43;5.55;;;8.40;99.90;;;;;;5051079;28;20249;-71
2021/10/26 02:20:11;;;;;;;5.90;5.30;;;8.40;99.90;;;;;;5051287;28;20197;-71
2021/10/26 02:22:38;;;;;;;6.35;5.75;;;8.40;99.90;;;;;;5051213;28;20577;-70
2021/10/26 02:25:06;;;;;;;6.75;4.90;;;8.50;99.90;;;;;;5051205;28;20909;-70
2021/10/26 02:27:33;;;;;;;6.63;5.90;;;8.60;99.90;;;;;;5050518;28;20209;-70
2021/10/26 02:30:01;;;;;;;6.57;5.60;;;8.50;99.90;;;;;;5051321;28;20577;-70
2021/10/26 02:32:28;;;;;;;6.60;5.45;;;8.60;99.90;;;;;;5050862;28;20255;-70
2021/10/26 02:34:54;;;;;;;10.50;6.05;;;8.60;99.90;;;;;;5050903;28;20197;-70
2021/10/26 02:37:21;;;;;;;6.82;5.78;;;8.60;99.90;;;;;;5050363;28;20209;-70
2021/10/26 02:39:48;;;;;;;6.93;6.00;;;8.60;99.90;;;;;;5051078;28;20209;-70
2021/10/26 02:42:14;;;;;;;11.20;6.47;;;8.70;99.90;;;;;;5050864;28;20205;-70
2021/10/26 02:44:41;;;;;;;10.50;5.80;;;8.70;99.90;;;;;;5050043;28;20224;-70
2021/10/26 02:47:09;;;;;;;7.40;6.30;;;8.70;99.90;;;;;;5050361;28;20718;-70
2021/10/26 02:49:36;;;;;;;8.77;5.70;;;8.70;99.90;;;;;;5050553;28;20201;-70
2021/10/26 02:52:03;;;;;;;6.60;5.20;;;8.70;99.90;;;;;;5050879;28;20201;-70
2021/10/26 02:54:30;;;;;;;8.27;6.13;;;8.70;99.90;;;;;;5050372;28;20616;-70
2021/10/26 02:56:57;;;;;;;11.73;6.15;;;8.70;99.90;;;;;;5050344;28;20267;-70
2021/10/26 02:59:24;;;;;;;9.50;7.55;;;8.70;99.90;;;;;;5050454;28;20204;-71
2021/10/26 03:01:51;;;;;;;7.65;6.25;;;8.70;99.90;;;;;;5050738;28;20680;-71
2021/10/26 03:04:19;;;;;;;7.57;6.50;;;8.80;99.90;;;;;;5050483;28;20196;-71
2021/10/26 03:06:46;;;;;;;9.13;7.05;;;8.80;99.90;;;;;;5050141;28;20225;-70
2021/10/26 03:09:13;;;;;;;8.07;6.95;;;8.80;99.90;;;;;;5050513;28;20211;-71
2021/10/26 03:11:40;;;;;;;9.95;6.53;;;8.80;99.90;;;;;;5050630;28;20208;-71
2021/10/26 03:14:07;;;;;;;6.90;6.22;;;8.80;99.90;;;;;;5050447;28;20580;-70
2021/10/26 03:16:34;;;;;;;7.53;6.47;;;8.70;99.90;;;;;;5049803;28;20589;-71
2021/10/26 03:19:04;;;;;;;6.45;5.85;;;8.80;99.90;;;;;;5050622;28;20201;-71
2021/10/26 03:21:33;;;;;;;7.60;6.15;;;8.80;99.90;;;;;;5050290;28;20201;-71
2021/10/26 03:24:00;;;;;;;6.50;5.90;;;8.70;99.90;;;;;;5050136;28;20213;-71
2021/10/26 03:26:27;;;;;;;6.97;6.10;;;8.70;99.90;;;;;;5049576;28;20248;-71
2021/10/26 03:28:54;;;;;;;7.18;5.85;;;8.70;99.90;;;;;;5050595;28;20205;-70
2021/10/26 03:31:21;;;;;;;9.52;6.35;;;8.80;99.90;;;;;;5050117;28;20243;-71
2021/10/26 03:33:48;;;;;;;7.25;6.05;;;8.80;99.90;;;;;;5050352;28;20292;-71
2021/10/26 03:36:15;;;;;;;7.65;5.78;;;8.80;99.90;;;;;;5049241;28;20221;-71
2021/10/26 03:38:43;;;;;;;9.63;7.00;;;8.80;99.90;;;;;;5044303;28;20222;-71
2021/10/26 03:41:10;;;;;;;6.72;6.10;;;8.80;99.90;;;;;;5048851;28;20204;-71
2021/10/26 03:43:37;;;;;;;6.53;5.90;;;8.80;99.90;;;;;;5048167;28;20205;-71
2021/10/26 03:46:04;;;;;;;8.27;6.95;;;8.80;99.90;;;;;;5050226;28;20229;-70
2021/10/26 03:48:31;;;;;;;6.97;6.20;;;8.80;99.90;;;;;;5050574;28;20998;-70
2021/10/26 03:50:58;;;;;;;11.60;6.85;;;8.80;99.90;;;;;;5050766;28;20201;-70
2021/10/26 03:53:24;;;;;;;7.68;6.38;;;8.80;99.90;;;;;;5028908;28;20229;-71
2021/10/26 03:55:53;;;;;;;7.47;6.43;;;8.80;99.90;;;;;;5040716;28;20323;-70
2021/10/26 03:58:19;;;;;;;8.40;6.70;;;8.80;99.90;;;;;;5032513;28;20202;-70
2021/10/26 04:00:46;;;;;;;12.98;7.28;;;8.80;99.90;;;;;;5033179;28;20206;-71
2021/10/26 04:03:13;;;;;;;7.85;6.75;;;8.80;99.90;;;;;;5032895;28;20212;-70
2021/10/26 04:05:45;;;;;;;10.10;6.80;;;8.80;99.90;;;;;;5033083;28;20268;-70
2021/10/26 04:08:23;;;;;;;9.68;6.32;;;8.80;99.90;;;;;;5033353;28;20210;-71
2021/10/26 04:10:53;;;;;;;7.35;6.55;;;8.80;99.90;;;;;;5033255;28;20205;-70
2021/10/26 04:13:22;;;;;;;8.75;6.57;;;8.70;99.90;;;;;;5032809;28;20683;-70
2021/10/26 04:15:49;;;;;;;7.30;6.25;;;8.70;99.90;;;;;;5043806;28;20224;-71
2021/10/26 04:18:16;;;;;;;7.68;6.60;;;8.60;99.90;;;;;;5050287;28;20676;-71
2021/10/26 04:20:43;;;;;;;6.65;6.05;;;8.60;99.90;;;;;;5034680;28;20228;-70
2021/10/26 04:23:10;;;;;;;7.25;6.43;;;8.50;99.90;;;;;;5050984;28;20213;-70
2021/10/26 04:25:37;;;;;;;9.80;6.90;;;8.50;99.90;;;;;;5052204;28;20455;-69
2021/10/26 04:28:05;;;;;;;6.65;6.05;;;8.50;99.90;;;;;;5052618;28;20205;-70
2021/10/26 04:30:34;;;;;;;7.72;6.78;;;8.40;99.90;;;;;;5115386;22;20249;-75
2021/10/26 04:33:02;;;;;;;8.10;7.30;;;8.40;99.90;;;;;;5033517;28;20669;-75
2021/10/26 04:35:29;;;;;;;8.57;6.40;;;8.30;99.90;;;;;;5032621;28;20502;-74
2021/10/26 04:37:55;;;;;;;6.95;5.63;;;8.30;99.90;;;;;;5032073;28;20206;-75
2021/10/26 04:40:22;;;;;;;7.72;6.63;;;8.30;99.90;;;;;;5032681;28;20216;-77
2021/10/26 04:42:49;;;;;;;8.27;6.55;;;8.30;99.90;;;;;;5032329;28;20209;-76
2021/10/26 04:45:16;;;;;;;7.22;6.07;;;8.30;99.90;;;;;;5051513;28;20707;-76
2021/10/26 04:47:45;;;;;;;7.95;6.60;;;8.30;99.90;;;;;;5052011;28;20209;-77
2021/10/26 04:50:15;;;;;;;9.40;7.50;;;8.30;99.90;;;;;;5052083;28;20212;-76
2021/10/26 04:52:42;;;;;;;9.38;7.05;;;8.30;99.90;;;;;;5052341;28;20259;-77
2021/10/26 04:55:09;;;;;;;6.57;5.80;;;8.30;99.90;;;;;;5051848;28;20221;-77
2021/10/26 04:57:35;;;;;;;7.28;6.55;;;8.20;99.90;;;;;;5051797;28;20213;-77
2021/10/26 05:00:03;;;;;;;7.82;6.13;;;8.20;99.90;;;;;;5052039;28;20201;-77
2021/10/26 05:02:30;;;;;;;7.28;6.55;;;8.20;99.90;;;;;;5047167;28;20205;-77
2021/10/26 05:04:58;;;;;;;8.20;5.95;;;8.20;99.90;;;;;;5049647;28;20541;-77
2021/10/26 05:07:25;;;;;;;11.82;6.93;;;8.20;99.90;;;;;;5050605;28;20683;-77
2021/10/26 05:09:52;;;;;;;7.10;6.40;;;8.20;99.90;;;;;;5052302;28;20282;-77
2021/10/26 05:12:18;;;;;;;6.90;6.20;;;8.10;99.90;;;;;;5051840;28;20205;-77
2021/10/26 05:14:45;;;;;;;7.30;6.50;;;8.10;99.90;;;;;;5051276;28;20208;-77
2021/10/26 05:17:17;;;;;;;6.13;5.60;;;8.10;99.90;;;;;;5050988;28;20207;-77
2021/10/26 05:19:45;;;;;;;10.95;6.55;;;8.20;99.90;;;;;;5051751;28;20201;-77
2021/10/26 05:22:13;;;;;;;6.93;6.00;;;8.10;99.90;;;;;;5051342;28;20233;-77
2021/10/26 05:24:40;;;;;;;8.98;6.15;;;8.10;99.90;;;;;;5051372;28;20565;-75
2021/10/26 05:27:07;;;;;;;7.30;5.53;;;8.10;99.90;;;;;;5050969;28;20232;-76
2021/10/26 05:29:33;;;;;;;6.60;5.88;;;8.20;99.90;;;;;;5051468;28;20208;-77
2021/10/26 05:32:00;;;;;;;6.80;5.70;;;8.10;99.90;;;;;;5051423;28;20223;-77
2021/10/26 05:34:27;;;;;;;8.40;6.30;;;8.10;99.90;;;;;;5051524;28;20208;-77
2021/10/26 05:36:54;;;;;;;6.75;6.05;;;8.10;99.90;;;;;;5050661;28;20221;-76
2021/10/26 05:39:22;;;;;;;7.40;6.32;;;8.10;99.90;;;;;;5051626;28;20213;-77
2021/10/26 05:41:49;;;;;;;6.95;6.25;;;8.10;99.90;;;;;;5051117;28;20205;-77
2021/10/26 05:44:16;;;;;;;6.97;6.18;;;8.10;99.90;;;;;;5050830;28;20205;-76
2021/10/26 05:46:43;;;;;;;6.97;6.15;;;8.00;99.90;;;;;;5050640;28;20256;-77
2021/10/26 05:49:10;;;;;;;7.55;6.50;;;8.00;99.90;;;;;;5050810;28;20630;-76
2021/10/26 05:51:37;;;;;;;7.30;6.10;;;7.90;99.90;;;;;;5051191;28;20208;-76
2021/10/26 05:54:04;;;;;;;7.03;5.93;;;8.00;99.90;;;;;;5050425;28;20249;-76
2021/10/26 05:56:32;;;;;;;6.93;6.05;;;7.90;99.90;;;;;;5050418;28;20584;-76
2021/10/26 05:58:59;;;;;;;6.38;5.20;;;8.00;99.90;;;;;;5050685;28;20203;-76
2021/10/26 06:01:25;;;;;;;6.63;5.93;;;7.90;99.90;;;;;;5050832;28;20204;-76
2021/10/26 06:03:52;;;;;;;8.15;6.68;;;7.90;99.90;;;;;;5050814;28;20201;-77
2021/10/26 06:06:19;;;;;;;7.78;5.47;;;7.90;99.90;;;;;;5049606;28;20232;-75
2021/10/26 06:08:47;;;;;;;7.85;6.22;;;7.90;99.90;;;;;;5051048;28;20313;-77
2021/10/26 06:11:17;;;;;;;9.57;5.93;;;7.90;99.90;;;;;;5050116;28;20308;-76
2021/10/26 06:13:48;;;;;;;8.30;6.85;;;8.00;99.90;;;;;;5050577;28;20205;-77
2021/10/26 06:16:15;;;;;;;8.63;7.03;;;8.00;99.90;;;;;;5049714;28;20715;-76
2021/10/26 06:18:41;;;;;;;8.60;7.78;;;8.00;99.90;;;;;;5049682;28;20201;-75
2021/10/26 06:21:08;;;;;;;7.53;6.72;;;8.00;99.90;;;;;;5050348;28;20197;-76
2021/10/26 06:23:35;;;;;;;8.93;8.02;;;8.00;99.90;;;;;;5050231;28;20280;-77
2021/10/26 06:26:02;;;;;;;7.55;6.80;;;8.00;99.90;;;;;;5049826;28;20696;-76
2021/10/26 06:28:29;;;;;;;8.95;6.55;;;8.00;99.90;;;;;;5049948;28;20207;-75
2021/10/26 06:30:57;;;;;;;7.55;6.65;;;8.00;99.90;;;;;;5050295;28;20298;-77
2021/10/26 06:33:24;;;;;;;9.07;7.10;;;8.10;99.90;;;;;;5050334;28;20212;-76
2021/10/26 06:35:51;;;;;;;8.70;7.80;;;8.20;99.90;;;;;;5049679;28;20213;-77
2021/10/26 06:38:17;;;;;;;12.85;9.00;;;8.20;99.90;;;;;;5050259;28;20572;-76
2021/10/26 06:40:44;;;;;;;10.35;8.63;;;8.40;99.90;;;;;;5050100;28;20208;-77
2021/10/26 06:43:11;;;;;;;9.90;8.20;;;8.40;99.90;;;;;;5050218;28;20291;-77
2021/10/26 06:45:38;;;;;;;13.85;8.57;;;8.50;99.90;;;;;;5049778;28;20712;-76
2021/10/26 06:48:06;;;;;;;10.05;9.05;;;8.60;99.90;;;;;;5049862;28;20569;-76
2021/10/26 06:50:33;;;;;;;17.08;9.48;;;8.60;99.90;;;;;;5050421;28;20234;-77
2021/10/26 06:53:00;;;;;;;9.23;7.95;;;8.60;99.90;;;;;;5049878;28;20212;-77
2021/10/26 06:55:27;;;;;;;10.80;8.93;;;8.70;99.90;;;;;;5050067;28;20224;-76
2021/10/26 06:57:54;;;;;;;11.90;9.25;;;8.70;99.90;;;;;;5049396;28;20548;-77
2021/10/26 07:00:22;;;;;;;10.48;9.07;;;8.70;99.90;;;;;;5049664;28;20310;-76
2021/10/26 07:02:50;;;;;;;12.77;8.85;;;8.70;99.90;;;;;;5045300;28;20259;-75
2021/10/26 07:05:19;;;;;;;12.25;7.93;;;8.80;99.90;;;;;;5049412;28;20774;-77
2021/10/26 07:07:46;;;;;;;10.48;8.23;;;8.90;99.90;;;;;;5049644;28;20229;-76
2021/10/26 07:10:14;;;;;;;12.00;8.27;;;8.90;99.90;;;;;;5049631;28;20209;-75
2021/10/26 07:12:41;;;;;;;11.15;7.93;;;9.00;99.90;;;;;;5050136;28;20204;-77
2021/10/26 07:15:09;;;;;;;9.60;8.35;;;9.00;99.90;;;;;;5049403;28;20236;-75
2021/10/26 07:17:37;;;;;;;10.32;8.50;;;9.10;99.90;;;;;;5049743;28;20582;-76
2021/10/26 07:20:07;;;;;;;9.52;8.63;;;9.10;99.90;;;;;;5050019;28;20201;-74
2021/10/26 07:22:35;;;;;;;10.90;9.45;;;9.20;99.90;;;;;;5050588;28;20258;-75
2021/10/26 07:25:03;;;;;;;11.60;9.18;;;9.20;99.90;;;;;;5048949;28;20197;-74
2021/10/26 07:27:30;;;;;;;12.20;9.10;;;9.30;99.90;;;;;;5048411;28;20765;-74
2021/10/26 07:29:57;;;;;;;10.23;9.13;;;9.30;99.90;;;;;;5053389;28;20201;-73
2021/10/26 07:32:24;;;;;;;11.60;9.00;;;9.40;99.90;;;;;;5052372;28;20219;-75
2021/10/26 07:34:51;;;;;;;11.73;8.52;;;9.40;99.90;;;;;;5043590;28;20313;-75
2021/10/26 07:37:21;;;;;;;11.57;8.45;;;9.50;99.90;;;;;;5042526;28;20204;-75
2021/10/26 07:39:51;;;;;;;10.45;7.65;;;9.70;99.90;;;;;;5044991;28;20255;-75
2021/10/26 07:42:20;;;;;;;9.73;8.25;;;10.00;99.90;;;;;;5044507;28;20284;-74
2021/10/26 07:44:47;;;;;;;9.23;8.32;;;10.20;99.90;;;;;;5043584;28;20684;-75
2021/10/26 07:47:16;;;;;;;17.95;8.50;;;10.40;99.90;;;;;;5041944;28;20226;-74
2021/10/26 07:49:43;;;;;;;10.05;8.70;;;10.50;99.90;;;;;;5044022;28;20201;-75
2021/10/26 07:52:11;;;;;;;16.73;9.95;;;10.60;99.90;;;;;;5044235;28;20190;-73
2021/10/26 07:54:37;;;;;;;10.30;8.63;;;10.70;99.90;;;;;;5043345;28;20190;-75
2021/10/26 07:57:06;;;;;;;8.82;7.82;;;10.80;99.90;;;;;;5041481;28;20214;-76
2021/10/26 07:59:33;;;;;;;8.00;7.20;;;11.00;99.90;;;;;;5035646;28;20210;-74
2021/10/26 08:02:00;;;;;;;10.50;7.72;;;11.10;99.90;;;;;;5033710;28;20199;-75
2021/10/26 08:04:27;;;;;;;13.80;8.30;;;11.30;99.90;;;;;;5035430;28;20209;-76
2021/10/26 08:06:54;;;;;;;9.27;7.90;;;11.40;99.90;;;;;;5033931;28;20226;-75
2021/10/26 08:09:22;;;;;;;11.95;8.73;;;11.60;99.90;;;;;;5034256;28;20239;-77
2021/10/26 08:11:49;;;;;;;12.43;7.68;;;11.60;99.90;;;;;;5033970;28;20206;-76
2021/10/26 08:14:17;;;;;;;9.88;8.05;;;11.70;99.90;;;;;;5033623;28;20201;-74
2021/10/26 08:16:44;;;;;;;9.73;8.50;;;11.70;99.90;;;;;;5033151;28;20240;-76
2021/10/26 08:19:11;;;;;;;9.07;7.97;;;11.80;99.90;;;;;;5033748;28;20202;-77
2021/10/26 08:21:38;;;;;;;11.83;8.60;;;12.00;99.90;;;;;;5034597;28;20202;-77
2021/10/26 08:24:06;;;;;;;7.68;6.88;;;12.60;99.90;;;;;;5033702;28;20555;-77
2021/10/26 08:26:36;;;;;;;9.43;6.90;;;12.90;99.90;;;;;;5033294;28;20704;-76
2021/10/26 08:29:10;;;;;;;7.50;6.28;;;13.10;99.90;;;;;;5033436;28;20464;-76
2021/10/26 08:31:45;;;;;;;8.70;6.00;;;13.10;99.90;;;;;;5034068;28;20229;-77
2021/10/26 08:34:15;;;;;;;7.07;6.03;;;13.20;99.90;;;;;;5033012;28;20460;-77
2021/10/26 08:36:42;;;;;;;7.30;6.60;;;13.30;99.90;;;;;;5033266;28;20484;-76
2021/10/26 08:39:10;;;;;;;6.77;5.20;;;13.20;99.90;;;;;;5033816;28;20674;-76
2021/10/26 08:41:44;;;;;;;7.40;5.83;;;13.10;99.90;;;;;;5032559;28;20468;-76
2021/10/26 08:44:12;;;;;;;7.00;6.20;;;12.80;99.90;;;;;;5033172;28;20991;-76
2021/10/26 08:46:40;;;;;;;6.60;5.20;;;12.70;99.90;;;;;;5032764;28;20491;-76
2021/10/26 08:49:07;;;;;;;8.23;6.40;;;12.60;99.90;;;;;;5033323;28;20460;-76
2021/10/26 08:51:34;;;;;;;7.83;6.10;;;12.60;99.90;;;;;;5033615;28;20464;-76
2021/10/26 08:54:00;;;;;;;7.18;5.45;;;12.40;99.90;;;;;;5033532;28;20460;-74
2021/10/26 08:56:27;;;;;;;7.53;6.60;;;12.40;99.90;;;;;;5033249;28;20222;-76
2021/10/26 08:58:56;;;;;;;8.88;5.43;;;12.40;99.90;;;;;;5032952;28;20460;-76
2021/10/26 09:01:23;;;;;;;8.20;5.70;;;12.50;99.90;;;;;;5034234;28;20197;-73
2021/10/26 09:03:52;;;;;;;6.10;5.00;;;12.60;99.90;;;;;;5051827;28;20307;-76
2021/10/26 09:06:26;;;;;;;6.60;5.53;;;12.70;99.90;;;;;;5051864;28;20539;-74
2021/10/26 09:08:55;;;;;;;6.10;5.20;;;12.90;99.90;;;;;;5052617;28;20463;-76
2021/10/26 09:11:25;;;;;;;6.90;5.80;;;13.00;99.90;;;;;;5052318;28;20463;-76
2021/10/26 09:16:43;;;;;;;6.90;5.20;;;13.10;99.90;;;;;;5051776;28;20970;-76
2021/10/26 09:19:12;;;;;;;4.77;4.17;;;13.30;99.90;;;;;;5052404;28;20464;-76
2021/10/26 09:21:40;;;;;;;5.23;4.60;;;13.70;99.90;;;;;;5052123;28;20825;-76
2021/10/26 09:24:09;;;;;;;5.17;4.67;;;14.30;99.90;;;;;;5051801;28;20463;-75
2021/10/26 09:27:01;;;;;;;5.17;4.30;;;14.90;99.90;;;;;;5051482;28;20495;-76
2021/10/26 09:29:43;;;;;;;4.13;3.73;;;15.20;99.90;;;;;;5033117;28;20517;-76
2021/10/26 09:32:13;;;;;;;7.70;4.60;;;15.10;99.90;;;;;;5051414;28;20471;-76
2021/10/26 09:34:44;;;;;;;5.50;4.10;;;14.70;99.90;;;;;;5051925;28;20505;-76
2021/10/26 09:37:12;;;;;;;4.33;3.93;;;14.50;99.90;;;;;;5050855;28;20454;-76
2021/10/26 09:39:40;;;;;;;4.47;4.07;;;14.20;99.90;;;;;;5051526;28;20519;-76
2021/10/26 09:42:11;;;;;;;4.13;3.73;;;14.00;99.90;;;;;;5048371;28;20554;-76
2021/10/26 09:44:48;;;;;;;5.40;3.50;;;14.00;99.90;;;;;;5051196;28;20502;-76
2021/10/26 09:47:19;;;;;;;5.83;3.60;;;13.90;99.90;;;;;;5051089;28;20487;-76
2021/10/26 09:49:54;;;;;;;4.30;2.97;;;13.70;99.90;;;;;;5051306;28;20566;-74
2021/10/26 09:52:25;;;;;;;3.40;3.10;;;13.60;99.90;;;;;;5051184;28;20472;-74
2021/10/26 09:55:13;;;;;;;7.57;3.73;;;13.60;99.90;;;;;;5050488;28;20470;-76
2021/10/26 09:57:43;;;;;;;4.03;3.27;;;13.50;99.90;;;;;;5051192;28;20472;-74
2021/10/26 10:00:12;;;;;;;3.47;2.60;;;13.50;99.90;;;;;;5051581;28;20471;-75
2021/10/26 10:02:39;;;;;;;4.23;3.13;;;13.50;99.90;;;;;;5051621;28;20959;-76
2021/10/26 10:05:09;;;;;;;3.50;2.83;;;13.50;99.90;;;;;;5051148;28;20479;-76
2021/10/26 10:07:38;;;;;;;3.90;2.57;;;13.50;99.90;;;;;;5050835;28;20510;-76
2021/10/26 10:10:11;;;;;;;3.33;2.50;;;13.60;99.90;;;;;;5051239;28;20470;-76
2021/10/26 10:12:39;;;;;;;4.07;2.67;;;13.80;99.90;;;;;;5051434;28;20509;-76
2021/10/26 10:15:08;;;;;;;3.30;2.70;;;14.00;99.90;;;;;;5050610;28;20525;-76
2021/10/26 10:17:36;;;;;;;4.37;2.80;;;14.30;99.90;;;;;;5050750;28;20550;-77
2021/10/26 10:20:05;;;;;;;6.40;2.33;;;14.60;99.90;;;;;;5051175;28;20459;-75
2021/10/26 10:22:34;;;;;;;2.87;2.63;;;14.80;99.90;;;;;;5051877;28;20913;-76
2021/10/26 10:25:04;;;;;;;8.43;3.53;;;15.00;99.90;;;;;;5050391;28;20554;-76
2021/10/26 10:27:32;;;;;;;3.50;2.87;;;15.30;99.90;;;;;;5050468;28;20479;-77
2021/10/26 10:30:00;;;;;;;3.90;3.20;;;16.00;99.90;;;;;;5050579;28;20486;-77
2021/10/26 10:32:49;;;;;;;3.40;2.27;;;16.40;99.90;;;;;;5110090;22;20513;-94
2021/10/26 10:35:18;;;;;;;4.23;3.00;;;16.60;99.90;;;;;;5067585;28;20459;-94
2021/10/26 10:38:01;;;;;;;4.73;2.67;;;16.70;99.90;;;;;;5067742;28;20471;-93
2021/10/26 10:41:05;;;;;;;3.30;2.43;;;16.70;99.90;;;;;;5078556;28;20470;-95
2021/10/26 10:43:41;;;;;;;3.83;2.77;;;16.50;99.90;;;;;;5063135;28;20471;-93
2021/10/26 10:47:01;;;;;;;3.80;2.40;;;16.00;99.90;;;;;;5056796;28;20460;-94
2021/10/26 10:50:00;;;;;;;4.73;3.50;;;15.70;99.90;;;;;;5062518;28;20455;-93
2021/10/26 10:52:46;;;;;;;3.40;3.07;;;15.40;99.90;;;;;;5059926;28;20550;-93
2021/10/26 10:55:38;;;;;;;3.73;3.23;;;15.10;99.90;;;;;;5063947;28;20435;-93
2021/10/26 11:01:47;;;;;;;5.07;3.10;;;15.00;99.90;;;;;;5064653;28;20911;-93
2021/10/26 11:04:38;;;;;;;4.20;3.03;;;15.50;99.90;;;;;;5062021;28;20474;-94
2021/10/26 11:07:08;;;;;;;3.03;2.10;;;15.90;99.90;;;;;;5064372;28;20452;-93
2021/10/26 11:09:58;;;;;;;3.73;3.13;;;16.10;99.90;;;;;;5067551;28;20483;-93
2021/10/26 11:16:40;;;;;;;3.53;2.20;;;16.00;99.90;;;;;;5067828;28;20462;-93
2021/10/26 11:19:10;;;;;;;4.67;2.50;;;16.20;99.90;;;;;;5073221;28;20550;-92
2021/10/26 11:21:38;;;;;;;6.83;2.50;;;16.20;99.90;;;;;;5077426;28;20463;-93
2021/10/26 11:24:23;;;;;;;3.20;2.13;;;16.20;99.90;;;;;;5073132;28;20523;-91
2021/10/26 11:26:50;;;;;;;2.77;2.10;;;16.10;99.90;;;;;;5068938;28;20455;-93
2021/10/26 11:36:13;;;;;;;5.60;2.70;;;15.40;99.90;;;;;;5076053;28;20466;-94
2021/10/26 11:39:23;;;;;;;3.40;2.40;;;15.60;99.90;;;;;;5067757;28;20498;-93
2021/10/26 11:45:07;;;;;;;4.20;1.90;;;15.80;99.90;;;;;;5065299;28;20443;-95
2021/10/26 11:47:41;;;;;;;3.57;1.73;;;15.60;99.90;;;;;;5077030;28;20435;-94
2021/10/26 11:50:08;;;;;;;4.20;2.67;;;15.30;99.90;;;;;;5077226;28;20441;-96
2021/10/26 11:52:38;;;;;;;3.77;2.13;;;15.20;99.90;;;;;;5077154;28;20595;-96
2021/10/26 11:55:06;;;;;;;3.77;2.50;;;15.00;99.90;;;;;;5069247;28;20953;-93
2021/10/26 11:57:33;;;;;;;3.23;1.93;;;14.90;99.90;;;;;;5052754;28;20574;-94
2021/10/26 12:00:04;;;;;;;4.23;2.10;;;14.80;99.90;;;;;;5054163;28;20474;-95
2021/10/26 12:02:33;;;;;;;3.30;2.27;;;14.70;99.90;;;;;;5054317;28;20487;-95
2021/10/26 12:05:01;;;;;;;2.63;2.00;;;14.60;99.90;;;;;;5053986;28;20848;-93
2021/10/26 12:07:30;;;;;;;3.57;2.10;;;14.60;99.90;;;;;;5053974;28;20459;-92
2021/10/26 12:09:59;;;;;;;2.93;1.80;;;14.50;99.90;;;;;;5055192;28;20498;-93
2021/10/26 12:12:29;;;;;;;2.83;2.07;;;14.50;99.90;;;;;;5055318;28;20507;-93
2021/10/26 12:14:57;;;;;;;2.43;2.00;;;14.40;99.90;;;;;;5056174;28;20465;-92
2021/10/26 12:17:26;;;;;;;2.83;1.63;;;14.40;99.90;;;;;;5059231;28;20486;-93
2021/10/26 12:20:00;;;;;;;3.47;2.40;;;14.40;99.90;;;;;;5058885;28;20964;-93
2021/10/26 12:22:30;;;;;;;2.77;2.30;;;14.30;99.90;;;;;;5058740;28;20487;-94
2021/10/26 12:25:03;;;;;;;5.30;2.70;;;14.30;99.90;;;;;;5059776;28;20536;-92
2021/10/26 12:27:34;;;;;;;3.67;2.40;;;14.20;99.90;;;;;;5060645;28;20456;-93
2021/10/26 12:30:23;;;;;;;4.07;2.83;;;14.20;99.90;;;;;;5060169;28;20532;-93
2021/10/26 12:32:55;;;;;;;3.00;2.13;;;14.10;99.90;;;;;;5062051;28;20572;-93
2021/10/26 12:35:25;;;;;;;3.70;2.17;;;14.10;99.90;;;;;;5061592;28;20451;-93
2021/10/26 12:38:04;;;;;;;4.67;2.60;;;14.10;99.90;;;;;;5056753;28;20924;-93
2021/10/26 12:40:39;;;;;;;3.30;2.27;;;14.00;99.90;;;;;;5057715;28;20953;-93
2021/10/26 12:43:08;;;;;;;2.37;1.90;;;14.00;99.90;;;;;;5056432;28;20558;-91
2021/10/26 12:45:37;;;;;;;7.40;2.60;;;14.00;99.90;;;;;;5040325;28;20953;-92
2021/10/26 12:48:05;;;;;;;7.17;2.70;;;13.90;99.90;;;;;;5036668;28;20547;-92
2021/10/26 12:50:43;;;;;;;3.97;2.90;;;13.90;99.90;;;;;;5036504;28;20680;-92
2021/10/26 12:53:22;;;;;;;4.80;3.20;;;13.80;99.90;;;;;;5036864;28;20467;-93
2021/10/26 13:02:11;;;;;;;3.33;2.00;;;13.60;99.90;;;;;;5033491;28;20543;-95
2021/10/26 13:04:41;;;;;;;3.00;2.30;;;13.60;99.90;;;;;;5049263;28;20448;-94
2021/10/26 13:07:09;;;;;;;4.50;2.37;;;13.60;99.90;;;;;;5058733;28;20479;-94
2021/10/26 13:09:42;;;;;;;6.03;2.67;;;13.70;99.90;;;;;;5065088;28;20452;-94
2021/10/26 13:15:17;;;;;;;5.90;2.10;;;14.00;99.90;;;;;;5063324;28;20803;-93
2021/10/26 13:17:47;;;;;;;6.40;2.60;;;14.00;99.90;;;;;;5062598;28;20475;-94
2021/10/26 13:20:31;;;;;;;5.10;2.30;;;14.00;99.90;;;;;;5062697;28;20479;-94
2021/10/26 13:23:11;;;;;;;2.10;1.70;;;13.90;99.90;;;;;;5061875;28;20479;-94
2021/10/26 13:25:45;;;;;;;3.00;1.90;;;13.90;99.90;;;;;;5075497;28;20479;-96
2021/10/26 13:28:14;;;;;;;2.03;1.63;;;13.90;99.90;;;;;;5074845;22;20564;-69
2021/10/26 13:30:50;;;;;;;4.07;2.17;;;13.90;99.90;;;;;;5062507;28;20455;-69